Time;durP1;ratioP1;P1;durP2;ratioP2;P2;SDS_P1;SDS_P2;PMS_P1;PMS_P2;Temp;Humidity;BMP_temperature;BMP_pressure;BME280_temperature;BME280_humidity;BME280_pressure;Samples;Min_cycle;Max_cycle;Signal;HPM_P1;HPM_P2
2022/03/26 00:00:29;;;;;;;44.60;19.27;;;;;;;7.28;75.74;103199.63;5094846;28;20059;-75
2022/03/26 00:02:54;;;;;;;42.97;19.90;;;;;;;7.30;75.19;103208.06;5094891;28;20062;-74
2022/03/26 00:05:20;;;;;;;40.35;18.85;;;;;;;7.32;75.70;103213.94;5094740;28;20510;-75
2022/03/26 00:07:45;;;;;;;44.53;18.88;;;;;;;7.29;75.74;103220.09;5093513;28;20028;-75
2022/03/26 00:10:11;;;;;;;40.95;18.60;;;;;;;7.27;75.36;103214.22;5094761;28;20055;-75
2022/03/26 00:12:39;;;;;;;33.63;17.85;;;;;;;7.19;75.57;103214.78;5076330;28;20031;-76
2022/03/26 00:15:04;;;;;;;43.75;18.23;;;;;;;7.19;75.90;103214.78;5076294;28;20027;-75
2022/03/26 00:17:31;;;;;;;33.42;17.75;;;;;;;7.24;75.98;103204.97;5094370;28;20024;-76
2022/03/26 00:19:56;;;;;;;37.03;17.10;;;;;;;7.07;75.07;103202.72;5076202;28;20077;-74
2022/03/26 00:22:22;;;;;;;40.97;17.60;;;;;;;6.94;75.82;103205.31;5094386;28;20028;-76
2022/03/26 00:24:47;;;;;;;31.77;17.15;;;;;;;6.93;76.22;103213.97;5076268;28;20024;-76
2022/03/26 00:27:12;;;;;;;35.92;18.10;;;;;;;7.04;76.01;103217.56;5094377;28;20036;-75
2022/03/26 00:29:38;;;;;;;38.15;18.20;;;;;;;7.13;76.45;103214.34;5076060;28;20505;-76
2022/03/26 00:32:04;;;;;;;42.03;17.50;;;;;;;7.13;76.35;103219.50;5094630;28;20027;-76
2022/03/26 00:34:30;;;;;;;44.13;18.67;;;;;;;7.12;75.90;103221.25;5094149;28;20466;-76
2022/03/26 00:36:56;;;;;;;34.20;17.13;;;;;;;7.12;75.58;103223.00;5094267;28;20100;-76
2022/03/26 00:39:22;;;;;;;36.50;17.30;;;;;;;6.97;75.54;103224.88;5075694;28;20031;-76
2022/03/26 00:41:47;;;;;;;42.38;17.52;;;;;;;6.97;75.81;103224.88;5095381;28;20394;-76
2022/03/26 00:44:12;;;;;;;41.72;19.13;;;;;;;6.88;75.79;103207.50;5076957;28;20024;-75
2022/03/26 00:46:38;;;;;;;46.78;18.55;;;;;;;6.81;75.51;103208.81;5076915;28;20050;-66
2022/03/26 00:49:08;;;;;;;46.50;21.25;;;;;;;6.93;75.62;103225.97;5076125;28;20028;-67
2022/03/26 00:51:35;;;;;;;43.33;21.10;;;;;;;6.95;75.59;103222.38;5074807;28;20403;-67
2022/03/26 00:54:01;;;;;;;59.22;24.92;;;;;;;6.85;75.09;103215.38;5092662;28;20031;-67
2022/03/26 00:56:26;;;;;;;54.00;25.27;;;;;;;6.73;75.90;103222.16;5092549;28;20024;-67
2022/03/26 00:58:52;;;;;;;51.10;22.60;;;;;;;6.81;76.04;103226.81;5092960;28;20043;-67
2022/03/26 01:01:17;;;;;;;45.15;22.20;;;;;;;6.78;75.81;103218.38;5075093;28;20059;-68
2022/03/26 01:03:42;;;;;;;42.33;21.05;;;;;;;6.71;75.60;103224.84;5075531;28;20478;-67
2022/03/26 01:06:08;;;;;;;40.95;19.85;;;;;;;6.68;75.48;103222.50;5091344;28;20024;-68
2022/03/26 01:08:33;;;;;;;39.95;18.45;;;;;;;6.59;76.08;103222.25;5092492;28;20028;-67
2022/03/26 01:10:59;;;;;;;37.58;17.58;;;;;;;6.54;75.50;103212.28;5091873;28;20066;-69
2022/03/26 01:13:25;;;;;;;39.65;17.70;;;;;;;6.58;75.59;103229.16;5092474;28;20028;-67
2022/03/26 01:15:51;;;;;;;35.38;17.00;;;;;;;6.53;75.27;103221.75;5092406;28;20426;-68
2022/03/26 01:18:17;;;;;;;37.13;17.40;;;;;;;6.51;74.68;103217.63;5093233;28;20420;-67
2022/03/26 01:20:42;;;;;;;33.72;16.95;;;;;;;6.57;74.93;103219.81;5093518;28;20106;-67
2022/03/26 01:23:09;;;;;;;33.83;15.77;;;;;;;6.57;74.28;103217.22;5093699;28;20081;-67
2022/03/26 01:25:35;;;;;;;30.00;15.27;;;;;;;6.53;74.16;103214.06;5093782;28;20016;-68
2022/03/26 01:28:00;;;;;;;34.38;15.93;;;;;;;6.56;74.63;103210.47;5092256;28;20039;-66
2022/03/26 01:30:26;;;;;;;29.60;16.10;;;;;;;6.51;74.23;103215.88;5074983;28;20452;-68
2022/03/26 01:32:52;;;;;;;33.70;15.93;;;;;;;6.56;74.81;103213.03;5093516;28;20028;-67
2022/03/26 01:35:18;;;;;;;37.42;16.95;;;;;;;6.57;74.33;103213.84;5093696;28;20115;-67
2022/03/26 01:37:43;;;;;;;34.92;15.65;;;;;;;6.55;74.42;103204.47;5092170;28;20066;-66
2022/03/26 01:40:09;;;;;;;36.22;16.55;;;;;;;6.54;74.19;103202.03;5093588;28;20103;-67
2022/03/26 01:42:34;;;;;;;33.15;16.77;;;;;;;6.48;74.96;103200.69;5092203;28;20024;-67
2022/03/26 01:45:00;;;;;;;32.65;16.20;;;;;;;6.43;74.61;103201.91;5093450;28;20146;-66
2022/03/26 01:47:25;;;;;;;33.53;16.40;;;;;;;6.42;74.72;103205.41;5075317;28;20032;-67
2022/03/26 01:49:51;;;;;;;34.03;16.25;;;;;;;6.38;74.14;103203.94;5075273;28;20056;-66
2022/03/26 01:52:17;;;;;;;37.30;16.85;;;;;;;6.33;73.86;103202.50;5093104;28;20024;-67
2022/03/26 01:54:43;;;;;;;37.28;15.55;;;;;;;6.41;74.63;103201.16;5075298;28;20020;-66
2022/03/26 01:57:10;;;;;;;33.60;16.80;;;;;;;6.40;74.86;103202.09;5093138;28;20032;-66
2022/03/26 01:59:39;;;;;;;38.33;15.88;;;;;;;6.39;75.00;103198.72;5092626;28;20062;-66
2022/03/26 02:02:05;;;;;;;32.65;16.25;;;;;;;6.27;74.01;103202.06;5095911;28;20475;-67
2022/03/26 02:04:30;;;;;;;32.97;15.52;;;;;;;6.10;74.50;103196.28;5097097;28;20020;-67
2022/03/26 02:06:56;;;;;;;33.97;16.42;;;;;;;6.05;74.94;103202.63;5097053;28;20103;-67
2022/03/26 02:09:21;;;;;;;32.10;16.35;;;;;;;6.08;75.00;103197.31;5096926;28;20044;-67
2022/03/26 02:11:46;;;;;;;41.28;16.27;;;;;;;6.12;74.79;103200.50;5095611;28;20134;-67
2022/03/26 02:14:14;;;;;;;34.45;16.08;;;;;;;6.17;74.62;103201.84;5078687;28;20027;-67
2022/03/26 02:16:41;;;;;;;43.88;17.92;;;;;;;6.16;74.76;103192.50;5095516;28;20081;-67
2022/03/26 02:19:08;;;;;;;39.10;16.38;;;;;;;6.19;74.48;103199.19;5096612;28;20491;-67
2022/03/26 02:21:35;;;;;;;39.85;15.25;;;;;;;5.90;74.92;103201.84;5095600;28;20050;-67
2022/03/26 02:24:02;;;;;;;34.97;15.90;;;;;;;6.00;74.85;103194.41;5096826;28;20021;-67
2022/03/26 02:26:28;;;;;;;40.28;15.85;;;;;;;5.78;75.45;103198.31;5078372;28;20028;-67
2022/03/26 02:28:55;;;;;;;33.72;16.08;;;;;;;5.89;75.31;103195.03;5078551;28;20027;-67
2022/03/26 02:31:21;;;;;;;36.63;16.80;;;;;;;5.99;75.34;103197.88;5096898;28;20477;-67
2022/03/26 02:33:47;;;;;;;34.40;16.33;;;;;;;6.00;74.45;103202.09;5096563;28;20024;-67
2022/03/26 02:36:13;;;;;;;35.28;16.40;;;;;;;5.97;74.58;103200.53;5096305;28;20055;-67
2022/03/26 02:38:39;;;;;;;35.13;16.33;;;;;;;5.80;74.90;103195.63;5078293;28;20501;-66
2022/03/26 02:41:05;;;;;;;38.90;17.35;;;;;;;5.70;74.99;103197.94;5096607;28;20031;-67
2022/03/26 02:43:31;;;;;;;48.22;17.83;;;;;;;5.80;74.94;103204.13;5096396;28;20027;-66
2022/03/26 02:45:56;;;;;;;41.33;17.83;;;;;;;5.84;74.72;103197.91;5096414;28;20024;-66
2022/03/26 02:48:22;;;;;;;42.08;17.45;;;;;;;5.80;74.45;103198.19;5077951;28;20051;-66
2022/03/26 02:50:47;;;;;;;40.45;17.55;;;;;;;5.77;74.34;103200.94;5096057;28;20056;-66
2022/03/26 02:53:13;;;;;;;41.53;18.38;;;;;;;5.77;74.42;103196.63;5096463;28;20036;-67
2022/03/26 02:55:39;;;;;;;39.08;18.35;;;;;;;5.68;74.36;103178.44;5096156;28;20035;-67
2022/03/26 02:58:06;;;;;;;45.83;18.58;;;;;;;5.74;74.84;103191.69;5095885;28;20024;-68
2022/03/26 03:00:32;;;;;;;41.50;17.75;;;;;;;5.71;74.74;103193.63;5077995;28;20047;-67
2022/03/26 03:02:58;;;;;;;42.58;18.27;;;;;;;5.69;74.33;103191.16;5094546;28;20529;-67
2022/03/26 03:05:24;;;;;;;44.10;19.15;;;;;;;5.70;74.66;103187.69;5077885;28;20016;-66
2022/03/26 03:07:50;;;;;;;43.75;18.73;;;;;;;5.67;74.60;103187.88;5095728;28;20439;-66
2022/03/26 03:10:17;;;;;;;46.92;18.55;;;;;;;5.63;75.02;103187.22;5095537;28;20390;-67
2022/03/26 03:12:44;;;;;;;45.38;19.05;;;;;;;5.70;74.70;103185.13;5077589;28;20020;-66
2022/03/26 03:15:12;;;;;;;41.70;18.70;;;;;;;5.71;74.62;103184.19;5095825;28;20016;-66
2022/03/26 03:17:39;;;;;;;39.38;18.35;;;;;;;5.69;74.15;103180.88;5094979;28;20032;-68
2022/03/26 03:20:06;;;;;;;46.28;18.83;;;;;;;5.61;74.48;103178.81;5094649;28;20031;-66
2022/03/26 03:22:32;;;;;;;43.80;19.55;;;;;;;5.63;74.29;103178.72;5095648;28;20022;-66
2022/03/26 03:24:57;;;;;;;43.20;19.15;;;;;;;5.69;74.61;103182.63;5095675;28;20016;-67
2022/03/26 03:27:23;;;;;;;42.15;18.73;;;;;;;5.62;74.50;103184.78;5094760;28;20024;-67
2022/03/26 03:29:48;;;;;;;43.13;18.88;;;;;;;5.41;74.61;103192.88;5095086;28;20028;-67
2022/03/26 03:32:15;;;;;;;45.50;18.77;;;;;;;5.20;75.42;103192.41;5095388;28;20020;-66
2022/03/26 03:34:40;;;;;;;45.08;18.70;;;;;;;5.34;76.00;103190.78;5077053;28;20470;-66
2022/03/26 03:37:06;;;;;;;42.47;18.45;;;;;;;5.36;75.52;103189.75;5077317;28;20165;-66
2022/03/26 03:39:32;;;;;;;41.08;19.40;;;;;;;5.38;75.41;103192.22;5095348;28;20410;-66
2022/03/26 03:41:57;;;;;;;46.85;19.25;;;;;;;5.32;75.06;103195.16;5095456;28;20027;-67
2022/03/26 03:44:22;;;;;;;44.70;19.70;;;;;;;5.32;75.29;103193.44;5095294;28;20135;-67
2022/03/26 03:46:48;;;;;;;44.65;19.48;;;;;;;5.26;75.70;103198.91;5095011;28;20051;-66
2022/03/26 03:49:13;;;;;;;49.67;19.00;;;;;;;5.31;75.93;103199.47;5077122;28;20069;-66
2022/03/26 03:51:38;;;;;;;41.60;19.70;;;;;;;5.24;75.73;103198.22;5094774;28;20040;-66
2022/03/26 03:54:05;;;;;;;43.40;18.80;;;;;;;5.32;75.15;103193.44;5076858;28;20024;-67
2022/03/26 03:56:30;;;;;;;45.03;18.92;;;;;;;5.27;75.18;103199.75;5076557;28;20129;-66
2022/03/26 03:58:56;;;;;;;40.50;19.08;;;;;;;5.28;75.55;103202.22;5076475;28;20032;-66
2022/03/26 04:01:21;;;;;;;44.15;20.13;;;;;;;5.25;75.57;103197.28;5076714;28;20031;-66
2022/03/26 04:03:47;;;;;;;46.33;19.92;;;;;;;5.18;74.98;103198.56;5094975;28;20107;-67
2022/03/26 04:06:12;;;;;;;44.97;20.00;;;;;;;5.25;75.62;103199.03;5076655;28;20426;-67
2022/03/26 04:08:37;;;;;;;46.53;19.67;;;;;;;5.20;75.41;103206.97;5094645;28;20051;-67
2022/03/26 04:11:03;;;;;;;49.85;19.88;;;;;;;5.06;75.93;103205.22;5094731;28;20035;-66
2022/03/26 04:13:28;;;;;;;50.50;19.92;;;;;;;5.02;75.95;103202.97;5076372;28;20093;-67
2022/03/26 04:15:53;;;;;;;44.63;19.95;;;;;;;5.02;75.92;103206.34;5076222;28;20111;-66
2022/03/26 04:18:18;;;;;;;46.40;19.83;;;;;;;5.07;76.01;103200.97;5076392;28;20020;-67
2022/03/26 04:20:44;;;;;;;44.03;19.70;;;;;;;5.06;76.38;103201.84;5094502;28;20377;-67
2022/03/26 04:23:09;;;;;;;47.13;20.52;;;;;;;5.11;76.14;103199.84;5075643;28;20031;-66
2022/03/26 04:25:34;;;;;;;46.30;20.38;;;;;;;4.89;75.77;103207.97;5076199;28;20109;-68
2022/03/26 04:28:00;;;;;;;49.35;21.13;;;;;;;4.99;76.10;103201.41;5094472;28;20081;-66
2022/03/26 04:30:26;;;;;;;45.30;20.25;;;;;;;5.05;76.01;103206.16;5094490;28;20028;-65
2022/03/26 04:32:51;;;;;;;46.90;19.80;;;;;;;4.97;75.78;103198.09;5094276;28;20441;-66
2022/03/26 04:35:17;;;;;;;47.78;20.88;;;;;;;4.97;75.96;103203.22;5094173;28;20074;-67
2022/03/26 04:37:43;;;;;;;49.42;20.45;;;;;;;4.96;76.42;103202.41;5075983;28;20524;-66
2022/03/26 04:40:11;;;;;;;48.50;19.48;;;;;;;4.95;75.95;103203.34;5094339;28;20110;-66
2022/03/26 04:42:38;;;;;;;47.88;20.42;;;;;;;4.73;76.13;103203.75;5075780;28;20028;-67
2022/03/26 04:45:04;;;;;;;43.28;20.55;;;;;;;4.73;76.85;103192.69;5094156;28;20391;-66
2022/03/26 04:47:29;;;;;;;48.10;21.17;;;;;;;4.87;76.98;103207.25;5076103;28;20027;-67
2022/03/26 04:49:55;;;;;;;43.97;19.58;;;;;;;4.73;76.85;103190.94;5094037;28;20502;-66
2022/03/26 04:52:20;;;;;;;47.85;20.77;;;;;;;4.71;76.85;103204.75;5094340;28;20024;-66
2022/03/26 04:54:48;;;;;;;44.72;20.20;;;;;;;4.54;76.40;103200.59;5093746;28;20467;-67
2022/03/26 04:57:15;;;;;;;50.53;20.48;;;;;;;4.74;76.89;103199.44;5092556;28;20032;-66
2022/03/26 04:59:40;;;;;;;46.25;20.63;;;;;;;4.81;76.78;103200.75;5093922;28;20017;-65
2022/03/26 05:02:05;;;;;;;45.50;20.38;;;;;;;4.81;76.70;103193.06;5075770;28;20016;-67
2022/03/26 05:04:31;;;;;;;49.65;20.23;;;;;;;4.84;76.52;103198.00;5075605;28;20067;-67
2022/03/26 05:06:56;;;;;;;51.92;20.88;;;;;;;4.80;76.15;103188.03;5093975;28;20031;-66
2022/03/26 05:09:21;;;;;;;51.78;21.65;;;;;;;4.83;76.07;103190.41;5093990;28;20035;-66
2022/03/26 05:11:46;;;;;;;42.92;20.42;;;;;;;4.83;75.81;103188.66;5075458;28;20153;-66
2022/03/26 05:14:13;;;;;;;46.40;21.15;;;;;;;4.83;75.86;103188.66;5093883;28;20031;-66
2022/03/26 05:16:38;;;;;;;48.95;21.05;;;;;;;4.84;76.43;103190.31;5075467;28;20035;-66
2022/03/26 05:19:04;;;;;;;52.15;21.20;;;;;;;4.75;76.17;103191.69;5075591;28;20032;-66
2022/03/26 05:21:29;;;;;;;49.63;21.27;;;;;;;4.71;76.36;103194.50;5075340;28;20051;-66
2022/03/26 05:23:54;;;;;;;48.58;20.33;;;;;;;4.67;76.83;103195.59;5075533;28;20024;-66
2022/03/26 05:26:22;;;;;;;51.67;22.15;;;;;;;4.60;76.43;103199.41;5093879;28;20046;-66
2022/03/26 05:28:48;;;;;;;50.08;20.67;;;;;;;4.51;76.49;103201.59;5092122;28;20027;-66
2022/03/26 05:31:14;;;;;;;45.75;20.88;;;;;;;4.50;75.87;103199.13;5093490;28;20481;-66
2022/03/26 05:33:39;;;;;;;48.10;21.08;;;;;;;4.59;76.38;103197.78;5094361;28;20024;-66
2022/03/26 05:36:05;;;;;;;51.38;20.70;;;;;;;4.67;75.94;103193.03;5097835;28;20024;-66
2022/03/26 05:38:31;;;;;;;49.67;20.50;;;;;;;4.65;75.88;103202.53;5097879;28;20016;-65
2022/03/26 05:40:56;;;;;;;48.90;19.77;;;;;;;4.66;75.80;103204.19;5079309;28;20467;-67
2022/03/26 05:43:21;;;;;;;50.85;20.63;;;;;;;4.65;76.54;103210.22;5079151;28;20031;-66
2022/03/26 05:45:50;;;;;;;51.63;21.52;;;;;;;4.79;75.64;103204.31;5097489;28;20020;-67
2022/03/26 05:48:16;;;;;;;52.05;20.88;;;;;;;4.84;75.69;103197.19;5097478;28;20054;-67
2022/03/26 05:50:41;;;;;;;48.65;21.40;;;;;;;4.78;75.38;103203.50;5063984;28;20048;-66
2022/03/26 05:53:06;;;;;;;49.03;20.95;;;;;;;4.79;75.32;103210.25;5055907;28;20125;-67
2022/03/26 05:55:32;;;;;;;55.53;23.02;;;;;;;4.86;75.10;103206.44;5055874;28;20025;-66
2022/03/26 05:57:57;;;;;;;55.97;23.13;;;;;;;4.83;75.16;103221.97;5055611;28;20044;-65
2022/03/26 06:00:22;;;;;;;54.53;22.67;;;;;;;4.83;75.16;103218.59;5055574;28;20025;-66
2022/03/26 06:02:48;;;;;;;51.30;22.15;;;;;;;5.01;74.40;103219.25;5055856;28;20029;-66
2022/03/26 06:05:13;;;;;;;56.95;23.92;;;;;;;5.07;74.78;103218.91;5056279;28;20020;-65
2022/03/26 06:07:39;;;;;;;56.75;23.75;;;;;;;5.04;74.53;103224.22;5056323;28;20040;-66
2022/03/26 06:10:04;;;;;;;58.63;24.70;;;;;;;5.05;74.32;103218.16;5056010;28;20017;-67
2022/03/26 06:12:30;;;;;;;57.00;24.60;;;;;;;5.18;73.96;103232.72;5057004;28;20021;-66
2022/03/26 06:14:55;;;;;;;55.00;23.60;;;;;;;5.16;74.44;103233.72;5055370;28;20467;-68
2022/03/26 06:17:22;;;;;;;53.08;23.60;;;;;;;5.21;74.68;103236.84;5055356;28;20055;-65
2022/03/26 06:19:47;;;;;;;56.03;24.45;;;;;;;5.37;73.82;103234.16;5056611;28;20577;-67
2022/03/26 06:22:13;;;;;;;56.80;24.08;;;;;;;5.44;73.51;103240.59;5056466;28;20029;-65
2022/03/26 06:24:39;;;;;;;53.97;24.52;;;;;;;5.40;74.99;103246.81;5056522;28;20025;-65
2022/03/26 06:27:06;;;;;;;56.78;24.80;;;;;;;5.48;74.85;103244.59;5056401;28;20024;-66
2022/03/26 06:29:33;;;;;;;56.00;25.25;;;;;;;5.58;73.60;103239.72;5055378;28;20472;-66
2022/03/26 06:31:58;;;;;;;62.78;25.35;;;;;;;5.69;73.37;103241.66;5055276;28;20518;-66
2022/03/26 06:34:24;;;;;;;58.30;25.63;;;;;;;5.78;74.28;103241.06;5056530;28;20025;-66
2022/03/26 06:36:49;;;;;;;60.05;25.27;;;;;;;5.89;73.85;103246.38;5055291;28;20027;-66
2022/03/26 06:39:15;;;;;;;62.05;26.75;;;;;;;6.03;73.28;103235.25;5055162;28;20059;-66
2022/03/26 06:41:40;;;;;;;60.17;27.13;;;;;;;6.04;73.02;103242.03;5054827;28;20023;-67
2022/03/26 06:44:09;;;;;;;60.55;25.42;;;;;;;6.12;72.60;103244.94;5054849;28;20021;-67
2022/03/26 06:46:36;;;;;;;67.28;28.67;;;;;;;6.31;71.96;103248.00;5055406;28;20032;-68
2022/03/26 06:49:02;;;;;;;66.43;27.27;;;;;;;6.46;72.34;103247.94;5056115;28;20029;-66
2022/03/26 06:51:27;;;;;;;59.22;27.20;;;;;;;6.47;71.81;103247.00;5054637;28;20083;-68
2022/03/26 06:53:53;;;;;;;59.20;27.27;;;;;;;6.52;72.51;103255.25;5056124;28;20029;-68
2022/03/26 06:56:18;;;;;;;65.75;26.80;;;;;;;6.80;72.88;103264.53;5054469;28;20540;-67
2022/03/26 06:58:44;;;;;;;70.15;29.23;;;;;;;6.99;72.60;103264.13;5055799;28;20067;-67
2022/03/26 07:01:10;;;;;;;83.72;34.50;;;;;;;7.10;71.53;103264.22;5055933;28;20029;-67
2022/03/26 07:03:35;;;;;;;97.10;37.35;;;;;;;7.32;71.68;103266.19;5055733;28;20024;-68
2022/03/26 07:06:00;;;;;;;90.78;36.83;;;;;;;7.52;72.03;103269.16;5055331;28;20510;-67
2022/03/26 07:08:26;;;;;;;90.25;37.97;;;;;;;7.62;71.25;103271.00;5055224;28;20032;-66
2022/03/26 07:10:52;;;;;;;80.22;35.42;;;;;;;7.73;71.05;103270.22;5053838;28;20146;-66
2022/03/26 07:13:17;;;;;;;76.10;35.45;;;;;;;7.88;69.99;103273.47;5055339;28;20475;-66
2022/03/26 07:15:43;;;;;;;76.85;34.47;;;;;;;8.14;69.70;103279.34;5053896;28;20024;-66
2022/03/26 07:18:09;;;;;;;78.35;35.20;;;;;;;8.34;70.09;103275.34;5053774;28;20035;-67
2022/03/26 07:20:35;;;;;;;82.03;34.22;;;;;;;8.52;69.88;103281.78;5054959;28;20025;-67
2022/03/26 07:23:00;;;;;;;81.07;33.78;;;;;;;8.71;67.07;103277.84;5053909;28;20044;-66
2022/03/26 07:25:26;;;;;;;77.05;33.92;;;;;;;9.40;66.34;103286.34;5053949;28;20488;-68
2022/03/26 07:27:52;;;;;;;75.45;33.53;;;;;;;13.21;54.92;103275.59;5055442;28;20111;-67
2022/03/26 07:30:19;;;;;;;75.85;33.50;;;;;;;16.70;44.63;103247.25;5053786;28;20377;-67
2022/03/26 07:32:44;;;;;;;73.05;35.17;;;;;;;18.31;39.56;103269.41;5053902;28;20436;-68
2022/03/26 07:35:10;;;;;;;72.85;35.75;;;;;;;19.02;38.51;103268.00;5053678;28;20079;-67
2022/03/26 07:37:35;;;;;;;75.00;37.88;;;;;;;19.91;37.18;103269.53;5053615;28;20060;-68
2022/03/26 07:40:01;;;;;;;73.72;37.65;;;;;;;20.05;35.08;103263.41;5055254;28;20122;-67
2022/03/26 07:42:27;;;;;;;74.63;37.03;;;;;;;20.30;35.27;103269.06;5055130;28;20036;-66
2022/03/26 07:44:53;;;;;;;70.30;37.60;;;;;;;20.26;33.74;103271.25;5054730;28;20048;-69
2022/03/26 07:47:18;;;;;;;63.58;37.03;;;;;;;20.39;34.26;103267.09;5054206;28;20025;-67
2022/03/26 07:49:45;;;;;;;65.07;37.45;;;;;;;20.88;33.72;103271.44;5061424;28;20048;-67
2022/03/26 07:52:10;;;;;;;62.63;36.70;;;;;;;21.09;33.37;103279.22;5094879;28;20026;-69
2022/03/26 07:54:35;;;;;;;67.95;37.10;;;;;;;20.78;33.43;103290.19;5093942;28;20394;-68
2022/03/26 07:57:01;;;;;;;63.70;36.30;;;;;;;21.28;33.17;103295.25;5093308;28;20016;-67
2022/03/26 07:59:26;;;;;;;66.75;36.30;;;;;;;21.38;32.87;103295.72;5076603;28;20035;-67
2022/03/26 08:01:51;;;;;;;64.53;36.38;;;;;;;21.96;31.62;103285.47;5094852;28;20125;-67
2022/03/26 08:04:16;;;;;;;62.30;35.13;;;;;;;22.30;31.78;103296.84;5094695;28;20390;-67
2022/03/26 08:06:42;;;;;;;60.38;35.72;;;;;;;22.18;31.56;103295.81;5094858;28;20016;-67
2022/03/26 08:09:07;;;;;;;60.72;36.97;;;;;;;22.45;31.54;103288.69;5076743;28;20028;-67
2022/03/26 08:11:33;;;;;;;62.08;35.50;;;;;;;22.50;30.80;103294.97;5094802;28;20073;-67
2022/03/26 08:13:58;;;;;;;59.13;35.85;;;;;;;22.76;31.48;103298.56;5094590;28;20032;-67
2022/03/26 08:16:23;;;;;;;55.47;35.15;;;;;;;22.33;31.62;103301.69;5094587;28;20024;-69
2022/03/26 08:18:49;;;;;;;62.50;35.30;;;;;;;22.81;30.32;103295.28;5094494;28;20019;-67
2022/03/26 08:21:15;;;;;;;56.17;35.10;;;;;;;22.85;30.25;103299.94;5093191;28;20020;-68
2022/03/26 08:23:41;;;;;;;61.70;35.65;;;;;;;22.83;30.37;103307.25;5076264;28;20024;-68
2022/03/26 08:26:26;;;;;;;60.00;35.30;;;;;;;22.88;30.80;103309.28;5092997;28;20028;-67
2022/03/26 08:28:53;;;;;;;63.28;35.78;;;;;;;22.94;30.08;103314.50;5094300;28;20047;-68
2022/03/26 08:31:20;;;;;;;60.30;34.53;;;;;;;23.28;29.74;103311.78;5094475;28;20028;-67
2022/03/26 08:33:46;;;;;;;60.10;34.85;;;;;;;22.87;29.77;103311.09;5094308;28;20371;-68
2022/03/26 08:36:12;;;;;;;65.03;34.13;;;;;;;23.31;29.41;103306.88;5094265;28;20020;-68
2022/03/26 08:38:39;;;;;;;62.97;33.08;;;;;;;21.95;30.89;103309.34;5094091;28;20490;-68
2022/03/26 08:41:04;;;;;;;55.30;32.15;;;;;;;22.01;30.96;103312.00;5075929;28;20023;-67
2022/03/26 08:43:30;;;;;;;58.88;31.85;;;;;;;23.69;28.17;103316.59;5094366;28;20035;-68
2022/03/26 08:45:55;;;;;;;62.92;32.17;;;;;;;23.90;29.08;103315.44;5094109;28;20114;-68
2022/03/26 08:48:21;;;;;;;57.35;32.15;;;;;;;23.21;28.56;103309.16;5093788;28;20073;-68
2022/03/26 08:50:47;;;;;;;60.38;32.50;;;;;;;23.76;29.16;103321.84;5093756;28;20113;-68
2022/03/26 08:53:12;;;;;;;53.72;31.17;;;;;;;;;;5075896;28;20028;-67
2022/03/26 08:55:38;;;;;;;48.67;28.52;;;;;;;23.22;28.84;103310.78;5093931;28;20363;-67
2022/03/26 08:58:03;;;;;;;51.90;28.23;;;;;;;23.98;28.13;103314.38;5092544;28;20360;-66
2022/03/26 09:00:29;;;;;;;52.35;28.00;;;;;;;24.15;27.29;103320.72;5093283;28;20073;-68
2022/03/26 09:02:55;;;;;;;58.33;28.45;;;;;;;24.54;26.17;103316.09;5092318;28;20659;-68
2022/03/26 09:05:20;;;;;;;58.63;29.63;;;;;;;24.89;26.04;103320.81;5092306;28;20027;-67
2022/03/26 09:07:46;;;;;;;61.15;28.63;;;;;;;24.74;26.02;103314.06;5091472;28;20526;-68
2022/03/26 09:10:12;;;;;;;58.05;27.77;;;;;;;25.16;26.39;103308.06;5093034;28;20035;-68
2022/03/26 09:12:37;;;;;;;64.75;31.60;;;;;;;24.81;25.96;103321.91;5093200;28;20402;-68
2022/03/26 09:15:06;;;;;;;54.35;28.13;;;;;;;24.43;26.79;103328.22;5091474;28;20021;-69
2022/03/26 09:17:32;;;;;;;55.40;27.98;;;;;;;25.18;26.33;103316.59;5092270;28;20471;-67
2022/03/26 09:19:58;;;;;;;51.00;28.42;;;;;;;24.55;26.82;103325.66;5092155;28;20032;-69
2022/03/26 09:22:23;;;;;;;55.67;29.65;;;;;;;25.05;26.71;103324.69;5074098;28;20039;-67
2022/03/26 09:24:48;;;;;;;58.25;29.40;;;;;;;23.54;27.48;103335.34;5092332;28;20024;-69
2022/03/26 09:27:14;;;;;;;54.88;28.75;;;;;;;21.87;30.65;103336.72;5074013;28;20400;-68
2022/03/26 09:29:39;;;;;;;55.88;28.08;;;;;;;21.96;30.88;103327.59;5073352;28;20149;-68
2022/03/26 09:32:05;;;;;;;42.72;24.50;;;;;;;21.79;31.59;103327.16;5090835;28;20024;-68
2022/03/26 09:34:30;;;;;;;52.78;27.60;;;;;;;21.38;31.86;103324.66;5091826;28;20107;-68
2022/03/26 09:36:55;;;;;;;50.47;27.20;;;;;;;21.52;32.00;103320.22;5091520;28;20085;-69
2022/03/26 09:39:21;;;;;;;53.92;27.42;;;;;;;21.06;32.58;103321.66;5092230;28;20020;-71
2022/03/26 09:41:47;;;;;;;48.38;27.30;;;;;;;21.44;31.94;103323.88;5073761;28;20026;-67
2022/03/26 09:44:13;;;;;;;51.00;28.25;;;;;;;20.56;33.19;103320.97;5092855;28;20536;-67
2022/03/26 09:46:39;;;;;;;53.42;27.52;;;;;;;21.03;33.41;103316.81;5093310;28;20111;-68
2022/03/26 09:49:05;;;;;;;56.28;28.77;;;;;;;21.50;31.68;103319.63;5093246;28;20036;-67
2022/03/26 09:51:32;;;;;;;60.30;30.20;;;;;;;19.51;35.14;103324.25;5092717;28;20076;-68
2022/03/26 09:53:57;;;;;;;65.05;32.53;;;;;;;20.41;33.89;103322.88;5074684;28;20024;-67
2022/03/26 09:56:24;;;;;;;63.60;33.55;;;;;;;20.42;32.84;103316.59;5093316;28;20470;-68
2022/03/26 09:58:56;;;;;;;62.08;34.25;;;;;;;21.07;33.65;103322.47;5093126;28;20069;-67
2022/03/26 10:01:22;;;;;;;74.30;34.85;;;;;;;20.55;33.46;103319.38;5075249;28;20024;-68
2022/03/26 10:04:16;;;;;;;72.13;34.63;;;;;;;21.15;33.17;103315.22;5075125;28;20055;-67
2022/03/26 10:06:55;;;;;;;66.35;34.92;;;;;;;20.56;33.82;103314.91;5093011;28;20020;-67
2022/03/26 10:09:39;;;;;;;64.88;32.08;;;;;;;20.15;33.58;103319.03;5093288;28;20073;-67
2022/03/26 10:12:10;;;;;;;66.40;32.58;;;;;;;21.31;32.65;103306.16;5093129;28;20016;-68
2022/03/26 10:14:42;;;;;;;65.83;31.40;;;;;;;21.41;31.94;103308.47;5074923;28;20024;-67
2022/03/26 10:17:11;;;;;;;56.65;28.90;;;;;;;20.64;33.14;103307.69;5093150;28;20027;-67
2022/03/26 10:19:44;;;;;;;60.35;30.50;;;;;;;20.87;32.80;103304.78;5093201;28;20032;-67
2022/03/26 10:22:31;;;;;;;57.20;29.63;;;;;;;21.37;32.03;103304.59;5096042;28;20024;-67
2022/03/26 10:25:03;;;;;;;50.42;26.13;;;;;;;20.74;32.45;103304.72;5096640;28;20536;-68
2022/03/26 10:27:33;;;;;;;58.28;28.20;;;;;;;20.60;32.84;103301.22;5096696;28;20062;-67
2022/03/26 10:30:01;;;;;;;51.58;28.23;;;;;;;20.81;33.22;103308.19;5078490;28;20081;-67
2022/03/26 10:32:39;;;;;;;50.65;27.40;;;;;;;21.53;32.64;103296.34;5096520;28;20081;-68
2022/03/26 10:35:06;;;;;;;55.30;27.52;;;;;;;21.54;31.31;103299.78;5096681;28;20032;-68
2022/03/26 10:38:01;;;;;;;41.90;21.70;;;;;;;21.22;32.47;103294.22;5078401;28;20115;-68
2022/03/26 10:40:34;;;;;;;44.08;21.92;;;;;;;21.91;30.91;103298.44;5096224;28;20035;-68
2022/03/26 10:43:01;;;;;;;42.95;22.17;;;;;;;21.77;31.24;103294.97;5078175;28;20020;-68
2022/03/26 10:45:28;;;;;;;45.13;20.52;;;;;;;21.46;31.21;103284.19;5096521;28;20031;-67
2022/03/26 10:47:58;;;;;;;50.50;23.05;;;;;;;20.70;31.69;103288.53;5096484;28;20032;-68
2022/03/26 10:50:26;;;;;;;52.13;24.92;;;;;;;20.82;32.12;103285.34;5077981;28;20040;-69
2022/03/26 10:52:56;;;;;;;51.03;23.80;;;;;;;19.92;33.06;103279.88;5096060;28;20034;-68
2022/03/26 10:55:25;;;;;;;48.20;24.25;;;;;;;19.66;33.69;103287.50;5096171;28;20085;-68
2022/03/26 10:57:51;;;;;;;49.58;22.98;;;;;;;20.89;32.16;103287.03;5077796;28;20024;-67
2022/03/26 11:00:18;;;;;;;52.22;24.80;;;;;;;21.11;32.03;103279.81;5096231;28;20513;-67
2022/03/26 11:02:44;;;;;;;56.30;25.67;;;;;;;21.55;32.05;103275.09;5095789;28;20039;-67
2022/03/26 11:05:12;;;;;;;54.53;25.00;;;;;;;21.11;33.81;103274.56;5096036;28;20020;-67
2022/03/26 11:07:41;;;;;;;53.05;25.48;;;;;;;21.60;32.79;103288.47;5095997;28;20498;-67
2022/03/26 11:10:09;;;;;;;49.40;23.15;;;;;;;21.84;30.71;103289.72;5095357;28;20467;-67